sensor_id;sensor_type;location;lat;lon;timestamp;pressure;altitude;pressure_sealevel;temperature;humidity
75219;BME280;63801;49.414;19.474;2023-06-19T00:00:59;93880.53;;;12.41;69.54
75219;BME280;63801;49.414;19.474;2023-06-19T00:02:59;93885.50;;;12.39;69.57
75219;BME280;63801;49.414;19.474;2023-06-19T00:04:59;93879.25;;;12.35;69.75
75219;BME280;63801;49.414;19.474;2023-06-19T00:07:00;93868.66;;;12.27;69.80
75219;BME280;63801;49.414;19.474;2023-06-19T00:09:01;93879.19;;;12.32;69.56
75219;BME280;63801;49.414;19.474;2023-06-19T00:11:02;93884.25;;;12.33;69.84
75219;BME280;63801;49.414;19.474;2023-06-19T00:13:02;93876.13;;;12.33;69.81
75219;BME280;63801;49.414;19.474;2023-06-19T00:15:03;93883.88;;;12.35;69.95
75219;BME280;63801;49.414;19.474;2023-06-19T00:17:03;93888.94;;;12.36;70.14
75219;BME280;63801;49.414;19.474;2023-06-19T00:19:04;93894.69;;;12.35;70.09
75219;BME280;63801;49.414;19.474;2023-06-19T00:21:04;93874.72;;;12.20;70.00
75219;BME280;63801;49.414;19.474;2023-06-19T00:23:06;93868.00;;;12.14;70.55
75219;BME280;63801;49.414;19.474;2023-06-19T00:25:10;93878.69;;;12.07;70.53
75219;BME280;63801;49.414;19.474;2023-06-19T00:27:11;93860.66;;;11.95;70.69
75219;BME280;63801;49.414;19.474;2023-06-19T00:29:11;93878.50;;;12.00;70.65
75219;BME280;63801;49.414;19.474;2023-06-19T00:31:11;93867.91;;;11.91;71.22
75219;BME280;63801;49.414;19.474;2023-06-19T00:33:14;93859.53;;;11.77;71.24
75219;BME280;63801;49.414;19.474;2023-06-19T00:35:14;93869.53;;;11.77;71.28
75219;BME280;63801;49.414;19.474;2023-06-19T00:37:15;93871.69;;;11.71;70.80
75219;BME280;63801;49.414;19.474;2023-06-19T00:39:15;93875.53;;;11.70;71.26
75219;BME280;63801;49.414;19.474;2023-06-19T00:41:16;93876.66;;;11.69;71.51
75219;BME280;63801;49.414;19.474;2023-06-19T00:43:17;93883.53;;;11.66;71.54
75219;BME280;63801;49.414;19.474;2023-06-19T00:45:17;93871.03;;;11.58;71.33
75219;BME280;63801;49.414;19.474;2023-06-19T00:47:18;93888.88;;;11.63;71.46
75219;BME280;63801;49.414;19.474;2023-06-19T00:49:18;93872.84;;;11.54;71.55
75219;BME280;63801;49.414;19.474;2023-06-19T00:51:18;93874.31;;;11.52;71.44
75219;BME280;63801;49.414;19.474;2023-06-19T00:53:19;93887.63;;;11.60;71.36
75219;BME280;63801;49.414;19.474;2023-06-19T00:55:21;93890.25;;;11.57;71.43
75219;BME280;63801;49.414;19.474;2023-06-19T00:57:21;93878.59;;;11.53;71.51
75219;BME280;63801;49.414;19.474;2023-06-19T00:59:22;93871.47;;;11.45;71.52
75219;BME280;63801;49.414;19.474;2023-06-19T01:01:22;93881.91;;;11.46;71.64
75219;BME280;63801;49.414;19.474;2023-06-19T01:03:26;93879.56;;;11.45;71.22
75219;BME280;63801;49.414;19.474;2023-06-19T01:05:26;93869.38;;;11.38;71.72
75219;BME280;63801;49.414;19.474;2023-06-19T01:07:58;93871.47;;;11.45;71.75
75219;BME280;63801;49.414;19.474;2023-06-19T01:10:02;93872.69;;;11.47;71.79
75219;BME280;63801;49.414;19.474;2023-06-19T01:12:09;93870.41;;;11.49;72.01
75219;BME280;63801;49.414;19.474;2023-06-19T01:14:18;93863.91;;;11.50;72.01
75219;BME280;63801;49.414;19.474;2023-06-19T01:16:20;93866.31;;;11.55;71.88
75219;BME280;63801;49.414;19.474;2023-06-19T01:18:22;93862.84;;;11.55;71.82
75219;BME280;63801;49.414;19.474;2023-06-19T01:22:30;93860.16;;;11.55;71.91
75219;BME280;63801;49.414;19.474;2023-06-19T01:24:30;93854.56;;;11.48;71.97
75219;BME280;63801;49.414;19.474;2023-06-19T01:26:31;93860.50;;;11.53;71.92
75219;BME280;63801;49.414;19.474;2023-06-19T01:28:31;93860.16;;;11.55;71.93
75219;BME280;63801;49.414;19.474;2023-06-19T01:30:32;93859.34;;;11.54;72.03
75219;BME280;63801;49.414;19.474;2023-06-19T01:33:01;93863.59;;;11.55;72.13
75219;BME280;63801;49.414;19.474;2023-06-19T01:35:00;93858.13;;;11.52;71.97
75219;BME280;63801;49.414;19.474;2023-06-19T01:37:02;93848.75;;;11.46;72.10
75219;BME280;63801;49.414;19.474;2023-06-19T01:39:05;93856.66;;;11.54;72.00
75219;BME280;63801;49.414;19.474;2023-06-19T01:41:07;93862.06;;;11.54;72.18
75219;BME280;63801;49.414;19.474;2023-06-19T01:43:08;93860.50;;;11.53;72.36
75219;BME280;63801;49.414;19.474;2023-06-19T01:45:10;93859.69;;;11.53;72.33
75219;BME280;63801;49.414;19.474;2023-06-19T01:47:11;93862.66;;;11.48;72.30
75219;BME280;63801;49.414;19.474;2023-06-19T01:49:12;93859.38;;;11.39;72.42
75219;BME280;63801;49.414;19.474;2023-06-19T01:51:12;93860.00;;;11.32;72.29
75219;BME280;63801;49.414;19.474;2023-06-19T01:53:13;93850.31;;;11.15;72.29
75219;BME280;63801;49.414;19.474;2023-06-19T01:55:14;93864.25;;;11.17;72.43
75219;BME280;63801;49.414;19.474;2023-06-19T01:57:14;93860.63;;;11.10;72.56
75219;BME280;63801;49.414;19.474;2023-06-19T01:59:14;93860.94;;;11.08;72.86
75219;BME280;63801;49.414;19.474;2023-06-19T02:01:15;93867.47;;;11.07;72.79
75219;BME280;63801;49.414;19.474;2023-06-19T02:03:15;93864.34;;;11.05;72.88
75219;BME280;63801;49.414;19.474;2023-06-19T02:05:16;93866.19;;;11.01;72.83
75219;BME280;63801;49.414;19.474;2023-06-19T02:07:19;93862.97;;;10.96;73.35
75219;BME280;63801;49.414;19.474;2023-06-19T02:09:20;93870.50;;;10.90;73.38
75219;BME280;63801;49.414;19.474;2023-06-19T02:11:20;93866.41;;;10.80;73.32
75219;BME280;63801;49.414;19.474;2023-06-19T02:13:20;93872.41;;;10.74;73.36
75219;BME280;63801;49.414;19.474;2023-06-19T02:15:21;93876.94;;;10.70;73.34
75219;BME280;63801;49.414;19.474;2023-06-19T02:17:22;93851.75;;;10.50;73.47
75219;BME280;63801;49.414;19.474;2023-06-19T02:19:22;93872.56;;;10.65;73.41
75219;BME280;63801;49.414;19.474;2023-06-19T02:21:22;93867.19;;;10.65;73.63
75219;BME280;63801;49.414;19.474;2023-06-19T02:23:23;93877.50;;;10.63;73.58
75219;BME280;63801;49.414;19.474;2023-06-19T02:25:23;93880.81;;;10.57;73.33
75219;BME280;63801;49.414;19.474;2023-06-19T02:27:24;93881.41;;;10.50;73.41
75219;BME280;63801;49.414;19.474;2023-06-19T02:29:25;93869.19;;;10.41;73.54
75219;BME280;63801;49.414;19.474;2023-06-19T02:31:25;93877.81;;;10.46;73.63
75219;BME280;63801;49.414;19.474;2023-06-19T02:33:26;93882.44;;;10.46;73.75
75219;BME280;63801;49.414;19.474;2023-06-19T02:35:26;93886.38;;;10.48;73.84
75219;BME280;63801;49.414;19.474;2023-06-19T02:37:26;93880.19;;;10.48;73.79
75219;BME280;63801;49.414;19.474;2023-06-19T02:39:27;93871.47;;;10.39;74.00
75219;BME280;63801;49.414;19.474;2023-06-19T02:41:27;93877.91;;;10.50;73.86
75219;BME280;63801;49.414;19.474;2023-06-19T02:43:27;93886.47;;;10.52;73.68
75219;BME280;63801;49.414;19.474;2023-06-19T02:45:28;93892.63;;;10.52;73.97
75219;BME280;63801;49.414;19.474;2023-06-19T02:47:32;93877.03;;;10.46;73.89
75219;BME280;63801;49.414;19.474;2023-06-19T02:49:32;93883.75;;;10.52;73.86
75219;BME280;63801;49.414;19.474;2023-06-19T02:51:32;93882.63;;;10.53;74.20
75219;BME280;63801;49.414;19.474;2023-06-19T02:53:33;93878.28;;;10.48;74.09
75219;BME280;63801;49.414;19.474;2023-06-19T02:55:33;93886.53;;;10.55;74.05
75219;BME280;63801;49.414;19.474;2023-06-19T02:57:34;93883.31;;;10.50;74.33
75219;BME280;63801;49.414;19.474;2023-06-19T02:59:34;93880.38;;;10.55;74.23
75219;BME280;63801;49.414;19.474;2023-06-19T03:01:34;93877.66;;;10.55;74.09
75219;BME280;63801;49.414;19.474;2023-06-19T03:03:35;93893.34;;;10.65;74.24
75219;BME280;63801;49.414;19.474;2023-06-19T03:05:38;93895.72;;;10.66;74.13
75219;BME280;63801;49.414;19.474;2023-06-19T03:07:38;93894.69;;;10.71;74.17
75219;BME280;63801;49.414;19.474;2023-06-19T03:09:38;93890.75;;;10.68;74.22
75219;BME280;63801;49.414;19.474;2023-06-19T03:11:39;93893.28;;;10.77;74.28
75219;BME280;63801;49.414;19.474;2023-06-19T03:13:50;93889.88;;;10.80;74.28
75219;BME280;63801;49.414;19.474;2023-06-19T03:15:50;93891.91;;;10.83;74.25
75219;BME280;63801;49.414;19.474;2023-06-19T03:17:52;93896.19;;;10.84;74.27
75219;BME280;63801;49.414;19.474;2023-06-19T03:19:53;93895.81;;;10.86;74.43
75219;BME280;63801;49.414;19.474;2023-06-19T03:21:53;93899.75;;;10.88;74.36
75219;BME280;63801;49.414;19.474;2023-06-19T03:23:53;93879.88;;;10.80;74.40
75219;BME280;63801;49.414;19.474;2023-06-19T03:25:54;93883.66;;;10.92;74.47
75219;BME280;63801;49.414;19.474;2023-06-19T03:27:54;93888.56;;;11.02;74.41
75219;BME280;63801;49.414;19.474;2023-06-19T03:29:55;93890.97;;;11.07;74.57
75219;BME280;63801;49.414;19.474;2023-06-19T03:31:55;93895.50;;;11.18;74.54
75219;BME280;63801;49.414;19.474;2023-06-19T03:33:55;93887.94;;;11.24;74.53
75219;BME280;63801;49.414;19.474;2023-06-19T03:35:56;93880.28;;;11.26;74.60
75219;BME280;63801;49.414;19.474;2023-06-19T03:37:57;93881.22;;;11.34;74.55
75219;BME280;63801;49.414;19.474;2023-06-19T03:39:57;93881.81;;;11.43;74.60
75219;BME280;63801;49.414;19.474;2023-06-19T03:41:57;93882.00;;;11.50;74.66
75219;BME280;63801;49.414;19.474;2023-06-19T03:43:58;93879.91;;;11.59;74.67
75219;BME280;63801;49.414;19.474;2023-06-19T03:45:58;93879.34;;;11.69;74.73
75219;BME280;63801;49.414;19.474;2023-06-19T03:47:58;93880.41;;;11.80;74.79
75219;BME280;63801;49.414;19.474;2023-06-19T03:49:59;93882.56;;;11.90;74.71
75219;BME280;63801;49.414;19.474;2023-06-19T03:52:00;93881.31;;;12.03;74.65
75219;BME280;63801;49.414;19.474;2023-06-19T03:54:01;93873.69;;;12.09;74.74
75219;BME280;63801;49.414;19.474;2023-06-19T03:56:01;93881.31;;;12.23;74.79
75219;BME280;63801;49.414;19.474;2023-06-19T03:58:01;93888.22;;;12.39;74.55
75219;BME280;63801;49.414;19.474;2023-06-19T04:00:02;93892.72;;;12.51;74.58
75219;BME280;63801;49.414;19.474;2023-06-19T04:02:07;93894.84;;;12.61;74.43
75219;BME280;63801;49.414;19.474;2023-06-19T04:04:07;93888.66;;;12.60;74.23
75219;BME280;63801;49.414;19.474;2023-06-19T04:06:08;93896.16;;;12.71;74.13
75219;BME280;63801;49.414;19.474;2023-06-19T04:08:08;93900.94;;;12.77;74.08
75219;BME280;63801;49.414;19.474;2023-06-19T04:10:09;93903.00;;;12.84;74.14
75219;BME280;63801;49.414;19.474;2023-06-19T04:12:11;93907.41;;;12.92;74.07
75219;BME280;63801;49.414;19.474;2023-06-19T04:14:12;93901.34;;;12.98;74.17
75219;BME280;63801;49.414;19.474;2023-06-19T04:16:12;93903.03;;;13.06;74.06
75219;BME280;63801;49.414;19.474;2023-06-19T04:18:13;93897.06;;;13.17;74.07
75219;BME280;63801;49.414;19.474;2023-06-19T04:20:13;93893.38;;;13.28;74.17
75219;BME280;63801;49.414;19.474;2023-06-19T04:22:14;93894.41;;;13.43;74.17
75219;BME280;63801;49.414;19.474;2023-06-19T04:24:14;93881.31;;;13.45;74.04
75219;BME280;63801;49.414;19.474;2023-06-19T04:26:15;93894.03;;;13.67;73.96
75219;BME280;63801;49.414;19.474;2023-06-19T04:28:15;93893.44;;;13.81;73.84
75219;BME280;63801;49.414;19.474;2023-06-19T04:30:15;93871.84;;;13.84;74.11
75219;BME280;63801;49.414;19.474;2023-06-19T04:32:16;93891.56;;;14.11;73.90
75219;BME280;63801;49.414;19.474;2023-06-19T04:34:17;93887.88;;;14.26;73.59
75219;BME280;63801;49.414;19.474;2023-06-19T04:36:20;93887.31;;;14.40;73.29
75219;BME280;63801;49.414;19.474;2023-06-19T04:38:21;93883.66;;;14.55;73.86
75219;BME280;63801;49.414;19.474;2023-06-19T04:40:23;93889.81;;;14.86;73.52
75219;BME280;63801;49.414;19.474;2023-06-19T04:42:25;93883.97;;;15.24;74.18
75219;BME280;63801;49.414;19.474;2023-06-19T04:44:26;93893.56;;;16.02;73.01
75219;BME280;63801;49.414;19.474;2023-06-19T04:46:26;93897.53;;;16.81;70.57
75219;BME280;63801;49.414;19.474;2023-06-19T04:48:27;93904.28;;;17.54;68.43
75219;BME280;63801;49.414;19.474;2023-06-19T04:50:27;93890.28;;;18.16;67.53
75219;BME280;63801;49.414;19.474;2023-06-19T04:52:27;93905.72;;;18.82;66.53
75219;BME280;63801;49.414;19.474;2023-06-19T04:54:28;93896.09;;;19.37;65.31
75219;BME280;63801;49.414;19.474;2023-06-19T04:56:29;93901.25;;;19.86;65.08
75219;BME280;63801;49.414;19.474;2023-06-19T04:58:29;93900.06;;;20.32;64.53
75219;BME280;63801;49.414;19.474;2023-06-19T05:00:29;93900.09;;;20.69;63.71
75219;BME280;63801;49.414;19.474;2023-06-19T05:02:29;93904.88;;;20.95;63.36
75219;BME280;63801;49.414;19.474;2023-06-19T05:04:30;93902.53;;;21.28;63.55
75219;BME280;63801;49.414;19.474;2023-06-19T05:06:32;93892.97;;;21.66;62.60
75219;BME280;63801;49.414;19.474;2023-06-19T05:08:33;93894.09;;;21.95;61.53
75219;BME280;63801;49.414;19.474;2023-06-19T05:10:33;93892.03;;;22.26;60.99
75219;BME280;63801;49.414;19.474;2023-06-19T05:12:34;93899.72;;;22.58;60.68
75219;BME280;63801;49.414;19.474;2023-06-19T05:14:35;93906.19;;;22.91;59.60
75219;BME280;63801;49.414;19.474;2023-06-19T05:16:35;93901.75;;;23.17;59.20
75219;BME280;63801;49.414;19.474;2023-06-19T05:18:36;93898.91;;;23.40;58.47
75219;BME280;63801;49.414;19.474;2023-06-19T05:20:36;93882.44;;;23.56;57.91
75219;BME280;63801;49.414;19.474;2023-06-19T05:22:36;93896.59;;;23.91;56.67
75219;BME280;63801;49.414;19.474;2023-06-19T05:24:37;93897.81;;;24.06;56.05
75219;BME280;63801;49.414;19.474;2023-06-19T05:26:37;93898.09;;;24.28;55.79
75219;BME280;63801;49.414;19.474;2023-06-19T05:28:37;93902.09;;;24.55;55.42
75219;BME280;63801;49.414;19.474;2023-06-19T05:30:38;93902.41;;;24.74;54.20
75219;BME280;63801;49.414;19.474;2023-06-19T05:32:38;93900.06;;;24.88;53.68
75219;BME280;63801;49.414;19.474;2023-06-19T05:34:39;93893.81;;;25.00;54.07
75219;BME280;63801;49.414;19.474;2023-06-19T05:36:39;93905.03;;;25.22;53.20
75219;BME280;63801;49.414;19.474;2023-06-19T05:38:39;93903.41;;;25.50;52.92
75219;BME280;63801;49.414;19.474;2023-06-19T05:40:40;93895.75;;;25.70;51.73
75219;BME280;63801;49.414;19.474;2023-06-19T05:42:40;93896.97;;;25.82;52.11
75219;BME280;63801;49.414;19.474;2023-06-19T05:44:41;93899.28;;;26.09;51.10
75219;BME280;63801;49.414;19.474;2023-06-19T05:46:41;93888.34;;;26.30;50.45
75219;BME280;63801;49.414;19.474;2023-06-19T05:48:41;93900.22;;;26.53;50.27
75219;BME280;63801;49.414;19.474;2023-06-19T05:50:42;93904.47;;;26.79;49.76
75219;BME280;63801;49.414;19.474;2023-06-19T05:52:42;93892.34;;;26.98;49.22
75219;BME280;63801;49.414;19.474;2023-06-19T05:54:43;93900.94;;;27.35;48.11
75219;BME280;63801;49.414;19.474;2023-06-19T05:56:43;93898.94;;;27.57;47.93
75219;BME280;63801;49.414;19.474;2023-06-19T05:58:44;93887.00;;;27.69;47.39
75219;BME280;63801;49.414;19.474;2023-06-19T06:00:44;93894.63;;;27.87;46.93
75219;BME280;63801;49.414;19.474;2023-06-19T06:02:45;93903.53;;;28.12;46.42
75219;BME280;63801;49.414;19.474;2023-06-19T06:04:46;93908.81;;;28.29;45.90
75219;BME280;63801;49.414;19.474;2023-06-19T06:06:46;93906.56;;;28.45;45.81
75219;BME280;63801;49.414;19.474;2023-06-19T06:08:46;93911.38;;;28.63;45.63
75219;BME280;63801;49.414;19.474;2023-06-19T06:10:47;93896.28;;;28.73;45.28
75219;BME280;63801;49.414;19.474;2023-06-19T06:12:48;93906.00;;;28.96;44.32
75219;BME280;63801;49.414;19.474;2023-06-19T06:14:48;93906.34;;;29.07;44.39
75219;BME280;63801;49.414;19.474;2023-06-19T06:16:49;93905.56;;;29.25;44.34
75219;BME280;63801;49.414;19.474;2023-06-19T06:18:49;93910.81;;;29.41;43.29
75219;BME280;63801;49.414;19.474;2023-06-19T06:20:49;93898.44;;;29.51;43.20
75219;BME280;63801;49.414;19.474;2023-06-19T06:22:50;93910.75;;;29.77;43.16
75219;BME280;63801;49.414;19.474;2023-06-19T06:24:50;93905.25;;;30.01;42.58
75219;BME280;63801;49.414;19.474;2023-06-19T06:26:50;93903.19;;;30.20;42.26
75219;BME280;63801;49.414;19.474;2023-06-19T06:28:51;93907.88;;;30.38;41.53
75219;BME280;63801;49.414;19.474;2023-06-19T06:30:52;93898.88;;;30.52;41.10
75219;BME280;63801;49.414;19.474;2023-06-19T06:32:52;93916.31;;;30.61;41.28
75219;BME280;63801;49.414;19.474;2023-06-19T06:34:52;93913.75;;;30.72;41.39
75219;BME280;63801;49.414;19.474;2023-06-19T06:36:53;93917.06;;;30.86;40.96
75219;BME280;63801;49.414;19.474;2023-06-19T06:38:53;93912.06;;;30.90;41.12
75219;BME280;63801;49.414;19.474;2023-06-19T06:40:53;93917.44;;;31.02;40.72
75219;BME280;63801;49.414;19.474;2023-06-19T06:42:54;93920.06;;;31.20;40.84
75219;BME280;63801;49.414;19.474;2023-06-19T06:44:54;93920.69;;;31.39;40.69
75219;BME280;63801;49.414;19.474;2023-06-19T06:46:54;93923.44;;;31.63;40.24
75219;BME280;63801;49.414;19.474;2023-06-19T06:48:55;93908.44;;;31.75;39.93
75219;BME280;63801;49.414;19.474;2023-06-19T06:50:55;93911.13;;;31.84;39.38
75219;BME280;63801;49.414;19.474;2023-06-19T06:53:01;93925.66;;;32.03;38.83
75219;BME280;63801;49.414;19.474;2023-06-19T06:55:01;93910.72;;;32.06;38.73
75219;BME280;63801;49.414;19.474;2023-06-19T06:57:01;93919.28;;;32.32;38.65
75219;BME280;63801;49.414;19.474;2023-06-19T06:59:03;93914.66;;;32.43;38.66
75219;BME280;63801;49.414;19.474;2023-06-19T07:01:03;93911.22;;;32.54;38.04
75219;BME280;63801;49.414;19.474;2023-06-19T07:03:04;93903.31;;;32.67;38.18
75219;BME280;63801;49.414;19.474;2023-06-19T07:05:04;93913.47;;;32.85;37.98
75219;BME280;63801;49.414;19.474;2023-06-19T07:07:04;93902.84;;;32.89;37.61
75219;BME280;63801;49.414;19.474;2023-06-19T07:09:06;93909.41;;;33.06;37.67
75219;BME280;63801;49.414;19.474;2023-06-19T07:11:07;93911.81;;;33.13;37.67
75219;BME280;63801;49.414;19.474;2023-06-19T07:13:07;93909.16;;;33.24;37.45
75219;BME280;63801;49.414;19.474;2023-06-19T07:15:08;93908.22;;;33.33;37.41
75219;BME280;63801;49.414;19.474;2023-06-19T07:17:08;93905.25;;;33.36;37.40
75219;BME280;63801;49.414;19.474;2023-06-19T07:19:09;93918.13;;;33.54;36.85
75219;BME280;63801;49.414;19.474;2023-06-19T07:21:12;93918.72;;;33.64;37.06
75219;BME280;63801;49.414;19.474;2023-06-19T07:23:15;93918.47;;;33.88;36.84
75219;BME280;63801;49.414;19.474;2023-06-19T07:25:16;93915.94;;;34.15;36.48
75219;BME280;63801;49.414;19.474;2023-06-19T07:27:16;93920.13;;;34.25;36.47
75219;BME280;63801;49.414;19.474;2023-06-19T07:29:17;93915.66;;;34.45;35.97
75219;BME280;63801;49.414;19.474;2023-06-19T07:31:17;93924.59;;;34.49;35.07
75219;BME280;63801;49.414;19.474;2023-06-19T07:33:17;93917.28;;;34.20;35.80
75219;BME280;63801;49.414;19.474;2023-06-19T07:35:18;93920.91;;;34.32;35.47
75219;BME280;63801;49.414;19.474;2023-06-19T07:37:18;93920.31;;;34.53;35.46
75219;BME280;63801;49.414;19.474;2023-06-19T07:39:19;93915.75;;;34.56;34.88
75219;BME280;63801;49.414;19.474;2023-06-19T07:41:19;93918.91;;;34.69;34.82
75219;BME280;63801;49.414;19.474;2023-06-19T07:43:20;93917.19;;;34.77;34.46
75219;BME280;63801;49.414;19.474;2023-06-19T07:45:22;93915.44;;;34.85;34.01
75219;BME280;63801;49.414;19.474;2023-06-19T07:47:23;93909.31;;;34.81;33.93
75219;BME280;63801;49.414;19.474;2023-06-19T07:49:23;93905.97;;;34.77;33.31
75219;BME280;63801;49.414;19.474;2023-06-19T07:51:24;93915.63;;;34.76;33.50
75219;BME280;63801;49.414;19.474;2023-06-19T07:53:24;93917.44;;;34.79;33.15
75219;BME280;63801;49.414;19.474;2023-06-19T07:55:25;93908.97;;;34.68;33.18
75219;BME280;63801;49.414;19.474;2023-06-19T07:57:26;93903.69;;;34.44;32.74
75219;BME280;63801;49.414;19.474;2023-06-19T07:59:26;93906.84;;;34.20;32.58
75219;BME280;63801;49.414;19.474;2023-06-19T08:01:26;93915.28;;;33.49;33.34
75219;BME280;63801;49.414;19.474;2023-06-19T08:03:27;93911.91;;;32.64;33.88
75219;BME280;63801;49.414;19.474;2023-06-19T08:05:27;93921.13;;;32.05;34.42
75219;BME280;63801;49.414;19.474;2023-06-19T08:07:27;93917.75;;;31.57;34.64
75219;BME280;63801;49.414;19.474;2023-06-19T08:09:28;93914.00;;;30.84;35.29
75219;BME280;63801;49.414;19.474;2023-06-19T08:11:28;93894.41;;;30.12;36.15
75219;BME280;63801;49.414;19.474;2023-06-19T08:13:29;93906.31;;;29.43;36.57
75219;BME280;63801;49.414;19.474;2023-06-19T08:15:29;93915.53;;;28.58;37.51
75219;BME280;63801;49.414;19.474;2023-06-19T08:17:29;93914.13;;;27.74;38.54
75219;BME280;63801;49.414;19.474;2023-06-19T08:19:30;93910.75;;;27.14;39.79
75219;BME280;63801;49.414;19.474;2023-06-19T08:21:30;93911.00;;;26.85;40.70
75219;BME280;63801;49.414;19.474;2023-06-19T08:23:30;93916.06;;;26.99;41.43
75219;BME280;63801;49.414;19.474;2023-06-19T08:25:31;93913.72;;;26.98;41.83
75219;BME280;63801;49.414;19.474;2023-06-19T08:27:31;93907.84;;;26.96;42.08
75219;BME280;63801;49.414;19.474;2023-06-19T08:29:31;93897.31;;;27.03;42.35
75219;BME280;63801;49.414;19.474;2023-06-19T08:31:32;93905.22;;;27.36;41.98
75219;BME280;63801;49.414;19.474;2023-06-19T08:33:34;93908.19;;;27.63;41.46
75219;BME280;63801;49.414;19.474;2023-06-19T08:35:35;93908.69;;;27.70;41.22
75219;BME280;63801;49.414;19.474;2023-06-19T08:37:35;93910.22;;;27.72;41.51
75219;BME280;63801;49.414;19.474;2023-06-19T08:39:36;93906.63;;;27.84;41.52
75219;BME280;63801;49.414;19.474;2023-06-19T08:41:39;93892.47;;;27.91;41.75
75219;BME280;63801;49.414;19.474;2023-06-19T08:43:41;93906.41;;;28.09;41.48
75219;BME280;63801;49.414;19.474;2023-06-19T08:45:42;93906.06;;;28.07;40.90
75219;BME280;63801;49.414;19.474;2023-06-19T08:47:43;93894.91;;;27.89;40.47
75219;BME280;63801;49.414;19.474;2023-06-19T08:49:43;93889.84;;;27.56;40.83
75219;BME280;63801;49.414;19.474;2023-06-19T08:51:44;93890.03;;;27.18;41.03
75219;BME280;63801;49.414;19.474;2023-06-19T08:53:53;93903.44;;;26.98;41.60
75219;BME280;63801;49.414;19.474;2023-06-19T08:55:54;93895.97;;;26.86;41.87
75219;BME280;63801;49.414;19.474;2023-06-19T08:57:54;93891.63;;;26.85;41.93
75219;BME280;63801;49.414;19.474;2023-06-19T08:59:54;93875.13;;;26.60;42.08
75219;BME280;63801;49.414;19.474;2023-06-19T09:01:55;93888.94;;;26.60;42.04
75219;BME280;63801;49.414;19.474;2023-06-19T09:03:55;93892.28;;;26.55;41.69
75219;BME280;63801;49.414;19.474;2023-06-19T09:05:56;93891.63;;;26.51;42.21
75219;BME280;63801;49.414;19.474;2023-06-19T09:07:59;93889.63;;;26.38;41.83
75219;BME280;63801;49.414;19.474;2023-06-19T09:10:11;93887.44;;;26.33;42.28
75219;BME280;63801;49.414;19.474;2023-06-19T09:12:13;93898.41;;;26.37;42.23
75219;BME280;63801;49.414;19.474;2023-06-19T09:14:14;93874.41;;;26.21;41.74
75219;BME280;63801;49.414;19.474;2023-06-19T09:16:14;93878.59;;;26.13;42.00
75219;BME280;63801;49.414;19.474;2023-06-19T09:18:15;93873.75;;;25.92;41.46
75219;BME280;63801;49.414;19.474;2023-06-19T09:20:26;93883.81;;;25.86;41.96
75219;BME280;63801;49.414;19.474;2023-06-19T09:22:28;93888.38;;;25.80;42.05
75219;BME280;63801;49.414;19.474;2023-06-19T09:24:34;93887.78;;;25.72;42.28
75219;BME280;63801;49.414;19.474;2023-06-19T09:26:35;93875.66;;;25.70;41.72
75219;BME280;63801;49.414;19.474;2023-06-19T09:28:40;93864.25;;;25.93;42.56
75219;BME280;63801;49.414;19.474;2023-06-19T09:30:54;93879.94;;;26.21;42.50
75219;BME280;63801;49.414;19.474;2023-06-19T09:32:55;93876.94;;;26.16;42.06
75219;BME280;63801;49.414;19.474;2023-06-19T09:34:57;93874.00;;;25.98;42.33
75219;BME280;63801;49.414;19.474;2023-06-19T09:37:00;93864.16;;;25.84;41.92
75219;BME280;63801;49.414;19.474;2023-06-19T09:39:02;93876.84;;;25.81;42.19
75219;BME280;63801;49.414;19.474;2023-06-19T09:41:04;93857.41;;;25.72;42.56
75219;BME280;63801;49.414;19.474;2023-06-19T09:43:05;93872.22;;;25.91;41.97
75219;BME280;63801;49.414;19.474;2023-06-19T09:45:08;93882.94;;;25.89;42.41
75219;BME280;63801;49.414;19.474;2023-06-19T09:47:22;93867.78;;;25.68;41.91
75219;BME280;63801;49.414;19.474;2023-06-19T09:49:26;93875.53;;;25.61;41.80
75219;BME280;63801;49.414;19.474;2023-06-19T09:51:35;93883.47;;;25.59;41.68
75219;BME280;63801;49.414;19.474;2023-06-19T09:53:37;93880.47;;;25.53;42.26
75219;BME280;63801;49.414;19.474;2023-06-19T09:55:38;93883.38;;;25.62;41.89
75219;BME280;63801;49.414;19.474;2023-06-19T09:57:39;93887.47;;;25.83;42.03
75219;BME280;63801;49.414;19.474;2023-06-19T09:59:40;93888.91;;;26.00;41.41
75219;BME280;63801;49.414;19.474;2023-06-19T10:01:42;93881.38;;;26.01;41.20
75219;BME280;63801;49.414;19.474;2023-06-19T10:03:43;93886.78;;;26.29;41.76
75219;BME280;63801;49.414;19.474;2023-06-19T10:05:43;93878.09;;;26.53;42.07
75219;BME280;63801;49.414;19.474;2023-06-19T10:07:45;93882.25;;;26.70;40.57
75219;BME280;63801;49.414;19.474;2023-06-19T10:11:56;93875.56;;;26.58;40.53
75219;BME280;63801;49.414;19.474;2023-06-19T10:14:06;93893.16;;;26.52;40.60
75219;BME280;63801;49.414;19.474;2023-06-19T10:16:08;93889.63;;;26.38;40.37
75219;BME280;63801;49.414;19.474;2023-06-19T10:18:18;93885.13;;;26.19;40.72
75219;BME280;63801;49.414;19.474;2023-06-19T10:20:25;93892.53;;;26.10;40.52
75219;BME280;63801;49.414;19.474;2023-06-19T10:22:31;93886.56;;;26.11;40.96
75219;BME280;63801;49.414;19.474;2023-06-19T10:24:31;93891.66;;;26.13;40.72
75219;BME280;63801;49.414;19.474;2023-06-19T10:26:33;93895.50;;;26.03;40.42
75219;BME280;63801;49.414;19.474;2023-06-19T10:28:34;93889.00;;;25.97;40.69
75219;BME280;63801;49.414;19.474;2023-06-19T10:30:35;93889.13;;;25.93;40.58
75219;BME280;63801;49.414;19.474;2023-06-19T10:32:35;93891.78;;;25.97;40.51
75219;BME280;63801;49.414;19.474;2023-06-19T10:34:36;93892.97;;;26.08;40.84
75219;BME280;63801;49.414;19.474;2023-06-19T10:36:36;93893.22;;;26.26;40.97
75219;BME280;63801;49.414;19.474;2023-06-19T10:38:36;93888.63;;;26.45;40.88